createdAt,value
2023-01-30T00:00:08.456Z,-1.6
2023-01-30T00:01:08.646Z,-1.6
2023-01-30T00:02:08.882Z,-1.6
2023-01-30T00:03:09.198Z,-1.6
2023-01-30T00:04:09.373Z,-1.7
2023-01-30T00:05:09.652Z,-1.7
2023-01-30T00:06:09.935Z,-1.7
2023-01-30T00:07:10.116Z,-1.7
2023-01-30T00:08:10.297Z,-1.7
2023-01-30T00:09:10.474Z,-1.7
2023-01-30T00:10:10.648Z,-1.7
2023-01-30T00:11:10.860Z,-1.7
2023-01-30T00:12:11.039Z,-1.7
2023-01-30T00:13:11.211Z,-1.7
2023-01-30T00:14:11.430Z,-1.7
2023-01-30T00:15:11.609Z,-1.7
2023-01-30T00:16:11.889Z,-1.7
2023-01-30T00:17:12.176Z,-1.7
2023-01-30T00:18:12.364Z,-1.7
2023-01-30T00:19:12.604Z,-1.7
2023-01-30T00:20:15.913Z,-1.7
2023-01-30T00:21:16.271Z,-1.7
2023-01-30T00:22:16.450Z,-1.7
2023-01-30T00:23:16.633Z,-1.7
2023-01-30T00:24:17.068Z,-1.8
2023-01-30T00:25:17.678Z,-1.8
2023-01-30T00:26:18.223Z,-1.8
2023-01-30T00:27:18.421Z,-1.8
2023-01-30T00:28:18.622Z,-1.8
2023-01-30T00:29:19.000Z,-1.8
2023-01-30T00:30:19.750Z,-1.8
2023-01-30T00:31:20.534Z,-1.8
2023-01-30T00:32:20.802Z,-1.8
2023-01-30T00:33:20.987Z,-1.8
2023-01-30T00:34:21.165Z,-1.8
2023-01-30T00:35:21.383Z,-1.8
2023-01-30T00:36:21.564Z,-1.8
2023-01-30T00:37:21.742Z,-1.8
2023-01-30T00:38:22.120Z,-1.8
2023-01-30T00:39:22.300Z,-1.8
2023-01-30T00:40:22.463Z,-1.8
2023-01-30T00:41:22.638Z,-1.8
2023-01-30T00:42:22.815Z,-1.8
2023-01-30T00:43:22.989Z,-1.8
2023-01-30T00:44:23.167Z,-1.8
2023-01-30T00:45:23.340Z,-1.8
2023-01-30T00:46:23.557Z,-1.8
2023-01-30T00:47:23.720Z,-1.8
2023-01-30T00:48:23.882Z,-1.8
2023-01-30T00:49:24.056Z,-1.8
2023-01-30T00:50:24.235Z,-1.8
2023-01-30T00:51:24.410Z,-1.8
2023-01-30T00:52:24.593Z,-1.8
2023-01-30T00:53:24.768Z,-1.8
2023-01-30T00:54:24.978Z,-1.8
2023-01-30T00:55:25.144Z,-1.8
2023-01-30T00:56:25.350Z,-1.8
2023-01-30T00:57:25.573Z,-1.8
2023-01-30T00:58:25.774Z,-1.8
2023-01-30T00:59:25.984Z,-1.8
2023-01-30T01:00:26.154Z,-1.8
2023-01-30T01:01:26.363Z,-1.8
2023-01-30T01:02:26.537Z,-1.8
2023-01-30T01:03:26.736Z,-1.8
2023-01-30T01:04:26.962Z,-1.9
2023-01-30T01:05:27.168Z,-1.9
2023-01-30T01:06:27.344Z,-1.9
2023-01-30T01:07:27.547Z,-1.9
2023-01-30T01:08:27.738Z,-1.9
2023-01-30T01:09:27.929Z,-1.9
2023-01-30T01:10:28.090Z,-1.9
2023-01-30T01:11:28.277Z,-1.9
2023-01-30T01:12:28.444Z,-1.9
2023-01-30T01:13:28.620Z,-1.9
2023-01-30T01:14:28.845Z,-1.9
2023-01-30T01:15:29.382Z,-1.9
2023-01-30T01:16:29.674Z,-1.9
2023-01-30T01:17:30.013Z,-1.9
2023-01-30T01:18:30.196Z,-1.9
2023-01-30T01:19:30.373Z,-1.9
2023-01-30T01:20:30.561Z,-1.9
2023-01-30T01:21:30.736Z,-1.9
2023-01-30T01:22:30.938Z,-1.9
2023-01-30T01:23:31.112Z,-1.9
2023-01-30T01:24:31.283Z,-1.9
2023-01-30T01:25:31.459Z,-1.9
2023-01-30T01:26:31.717Z,-1.9
2023-01-30T01:27:31.960Z,-1.9
2023-01-30T01:28:32.133Z,-1.9
2023-01-30T01:29:32.345Z,-1.9
2023-01-30T01:30:32.526Z,-1.9
2023-01-30T01:31:32.949Z,-1.9
2023-01-30T01:32:33.611Z,-1.9
2023-01-30T01:33:33.800Z,-1.9
2023-01-30T01:34:33.977Z,-1.9
2023-01-30T01:35:34.167Z,-1.9
2023-01-30T01:36:53.837Z,-1.9
2023-01-30T01:37:55.160Z,-1.8
2023-01-30T01:38:55.343Z,-1.8
2023-01-30T01:39:55.512Z,-1.8
2023-01-30T01:40:55.685Z,-1.8
2023-01-30T01:41:55.856Z,-1.8
2023-01-30T01:42:56.053Z,-1.8
2023-01-30T01:43:56.223Z,-1.8
2023-01-30T01:44:56.392Z,-1.9
2023-01-30T01:45:56.695Z,-1.9
2023-01-30T01:46:56.940Z,-1.9
2023-01-30T01:47:57.133Z,-1.9
2023-01-30T01:48:57.310Z,-1.9
2023-01-30T01:49:57.487Z,-1.9
2023-01-30T01:50:57.664Z,-1.9
2023-01-30T01:51:57.870Z,-1.9
2023-01-30T01:52:58.091Z,-1.9
2023-01-30T01:53:58.334Z,-1.9
2023-01-30T01:54:58.737Z,-1.9
2023-01-30T01:55:58.946Z,-1.9
2023-01-30T01:56:59.119Z,-1.9
2023-01-30T01:57:59.485Z,-1.9
2023-01-30T01:58:59.743Z,-1.9
2023-01-30T01:59:59.943Z,-1.9
2023-01-30T02:01:00.241Z,-1.9
2023-01-30T02:02:00.572Z,-1.9
2023-01-30T02:03:00.824Z,-1.9
2023-01-30T02:04:01.002Z,-1.9
2023-01-30T02:05:01.195Z,-1.9
2023-01-30T02:06:01.403Z,-1.9
2023-01-30T02:07:01.626Z,-1.9
2023-01-30T02:08:01.796Z,-1.9
2023-01-30T02:09:01.963Z,-1.9
2023-01-30T02:10:02.135Z,-1.9
2023-01-30T02:11:02.311Z,-1.9
2023-01-30T02:12:02.545Z,-1.9
2023-01-30T02:13:02.730Z,-1.9
2023-01-30T02:14:02.895Z,-1.9
2023-01-30T02:15:03.082Z,-1.9
2023-01-30T02:16:03.281Z,-1.9
2023-01-30T02:17:03.463Z,-1.9
2023-01-30T02:18:03.627Z,-1.9
2023-01-30T02:19:03.946Z,-1.9
2023-01-30T02:20:04.233Z,-1.9
2023-01-30T02:21:04.442Z,-1.9
2023-01-30T02:22:04.615Z,-1.9
2023-01-30T02:23:04.788Z,-1.9
2023-01-30T02:24:04.962Z,-1.9
2023-01-30T02:25:05.160Z,-1.9
2023-01-30T02:26:05.336Z,-1.9
2023-01-30T02:27:05.500Z,-1.9
2023-01-30T02:28:05.682Z,-1.9
2023-01-30T02:29:05.843Z,-1.9
2023-01-30T02:30:06.014Z,-1.9
2023-01-30T02:31:06.401Z,-1.9
2023-01-30T02:32:06.806Z,-1.9
2023-01-30T02:33:07.002Z,-1.9
2023-01-30T02:34:07.182Z,-1.9
2023-01-30T02:35:07.352Z,-1.9
2023-01-30T02:36:07.527Z,-1.9
2023-01-30T02:37:07.692Z,-1.9
2023-01-30T02:38:07.863Z,-1.9
2023-01-30T02:39:08.036Z,-1.9
2023-01-30T02:40:08.221Z,-1.9
2023-01-30T02:41:08.603Z,-1.9
2023-01-30T02:42:08.783Z,-1.9
2023-01-30T02:43:08.989Z,-1.9
2023-01-30T02:44:09.164Z,-1.9
2023-01-30T02:45:09.342Z,-1.9
2023-01-30T02:46:09.581Z,-1.9
2023-01-30T02:47:09.824Z,-1.9
2023-01-30T02:48:10.023Z,-1.9
2023-01-30T02:49:10.183Z,-1.9
2023-01-30T02:50:10.361Z,-1.9
2023-01-30T02:51:10.538Z,-1.9
2023-01-30T02:52:10.735Z,-1.9
2023-01-30T02:53:10.912Z,-1.9
2023-01-30T02:54:11.122Z,-1.8
2023-01-30T02:55:11.315Z,-1.8
2023-01-30T02:56:11.485Z,-1.8
2023-01-30T02:57:11.662Z,-1.8
2023-01-30T02:58:11.833Z,-1.8
2023-01-30T02:59:12.012Z,-1.8
2023-01-30T03:00:12.205Z,-1.8
2023-01-30T03:01:12.472Z,-1.8
2023-01-30T03:02:12.834Z,-1.8
2023-01-30T03:03:13.177Z,-1.8
2023-01-30T03:04:13.354Z,-1.8
2023-01-30T03:05:13.519Z,-1.8
2023-01-30T03:06:13.691Z,-1.8
2023-01-30T03:07:13.857Z,-1.8
2023-01-30T03:08:14.026Z,-1.8
2023-01-30T03:09:14.192Z,-1.8
2023-01-30T03:10:14.613Z,-1.8
2023-01-30T03:11:14.911Z,-1.8
2023-01-30T03:12:15.266Z,-1.8
2023-01-30T03:13:15.669Z,-1.8
2023-01-30T03:14:15.984Z,-1.8
2023-01-30T03:15:17.033Z,-1.8
2023-01-30T03:16:17.907Z,-1.8
2023-01-30T03:17:18.198Z,-1.8
2023-01-30T03:18:18.516Z,-1.8
2023-01-30T03:19:18.688Z,-1.8
2023-01-30T03:20:18.857Z,-1.8
2023-01-30T03:21:19.118Z,-1.8
2023-01-30T03:22:19.307Z,-1.8
2023-01-30T03:23:19.531Z,-1.8
2023-01-30T03:24:19.711Z,-1.9
2023-01-30T03:25:20.689Z,-1.9
2023-01-30T03:26:21.189Z,-1.9
2023-01-30T03:27:21.541Z,-1.9
2023-01-30T03:28:21.725Z,-1.9
2023-01-30T03:29:22.027Z,-1.9
2023-01-30T03:30:22.266Z,-1.9
2023-01-30T03:31:22.749Z,-1.9
2023-01-30T03:32:23.155Z,-1.9
2023-01-30T03:33:23.355Z,-1.9
2023-01-30T03:34:23.518Z,-2
2023-01-30T03:35:23.682Z,-2
2023-01-30T03:36:23.837Z,-2
2023-01-30T03:37:24.009Z,-2
2023-01-30T03:38:24.201Z,-2
2023-01-30T03:39:24.408Z,-2
2023-01-30T03:40:24.594Z,-2
2023-01-30T03:41:24.767Z,-2
2023-01-30T03:42:24.938Z,-2
2023-01-30T03:43:25.118Z,-2
2023-01-30T03:44:25.288Z,-2.09
2023-01-30T03:45:25.463Z,-2.09
2023-01-30T03:46:25.843Z,-2.09
2023-01-30T03:47:26.078Z,-2.09
2023-01-30T03:48:26.270Z,-2.09
2023-01-30T03:49:26.450Z,-2.09
2023-01-30T03:50:26.636Z,-2.09
2023-01-30T03:51:26.815Z,-2.09
2023-01-30T03:52:27.013Z,-2.09
2023-01-30T03:53:27.197Z,-2.09
2023-01-30T03:54:27.479Z,-2.09
2023-01-30T03:55:27.753Z,-2.09
2023-01-30T03:56:28.111Z,-2.09
2023-01-30T03:57:28.318Z,-2.09
2023-01-30T03:58:28.489Z,-2.09
2023-01-30T03:59:28.675Z,-2.09
2023-01-30T04:00:28.916Z,-2.09
2023-01-30T04:01:29.294Z,-2.09
2023-01-30T04:02:29.893Z,-2.09
2023-01-30T04:03:30.126Z,-2.09
2023-01-30T04:04:30.295Z,-2.09
2023-01-30T04:05:30.473Z,-2.09
2023-01-30T04:06:30.644Z,-2.09
2023-01-30T04:07:30.821Z,-2.09
2023-01-30T04:08:31.004Z,-2.09
2023-01-30T04:09:31.169Z,-2.09
2023-01-30T04:10:31.334Z,-2.09
2023-01-30T04:11:31.639Z,-2.09
2023-01-30T04:12:31.816Z,-2.09
2023-01-30T04:13:31.995Z,-2.09
2023-01-30T04:14:32.172Z,-2.09
2023-01-30T04:15:32.370Z,-2.09
2023-01-30T04:16:32.596Z,-2.09
2023-01-30T04:17:32.850Z,-2.09
2023-01-30T04:18:33.017Z,-2.09
2023-01-30T04:19:33.196Z,-2.09
2023-01-30T04:20:33.366Z,-2.09
2023-01-30T04:21:33.535Z,-2.09
2023-01-30T04:22:33.727Z,-2.09
2023-01-30T04:23:33.903Z,-2.09
2023-01-30T04:24:34.089Z,-2.09
2023-01-30T04:25:34.259Z,-2.09
2023-01-30T04:26:34.478Z,-2.09
2023-01-30T04:27:34.687Z,-2.09
2023-01-30T04:28:34.869Z,-2.09
2023-01-30T04:29:35.047Z,-2.09
2023-01-30T04:30:35.304Z,-2.09
2023-01-30T04:31:35.724Z,-2.09
2023-01-30T04:32:35.947Z,-2.09
2023-01-30T04:33:36.114Z,-2.09
2023-01-30T04:34:36.288Z,-2.09
2023-01-30T04:35:36.441Z,-2.09
2023-01-30T04:36:36.606Z,-2.09
2023-01-30T04:37:36.798Z,-2.09
2023-01-30T04:38:37.101Z,-2.09
2023-01-30T04:39:37.259Z,-2.09
2023-01-30T04:40:37.434Z,-2.09
2023-01-30T04:41:37.600Z,-2.09
2023-01-30T04:42:37.768Z,-2.09
2023-01-30T04:43:38.026Z,-2.09
2023-01-30T04:44:38.206Z,-2.09
2023-01-30T04:45:38.374Z,-2.09
2023-01-30T04:46:38.553Z,-2.09
2023-01-30T04:47:38.836Z,-2.09
2023-01-30T04:48:39.105Z,-2.09
2023-01-30T04:49:39.315Z,-2.09
2023-01-30T04:50:39.477Z,-2.09
2023-01-30T04:51:39.703Z,-2.09
2023-01-30T04:52:40.140Z,-2.09
2023-01-30T04:53:40.313Z,-2.09
2023-01-30T04:54:40.493Z,-2.09
2023-01-30T04:55:40.667Z,-2.09
2023-01-30T04:56:40.844Z,-2.09
2023-01-30T04:57:41.027Z,-2.09
2023-01-30T04:58:41.195Z,-2.09
2023-01-30T04:59:41.367Z,-2.09
2023-01-30T05:00:41.633Z,-2.09
2023-01-30T05:01:41.962Z,-2.09
2023-01-30T05:02:42.213Z,-2.09
2023-01-30T05:03:42.390Z,-2.09
2023-01-30T05:04:42.564Z,-2.09
2023-01-30T05:05:42.736Z,-2.09
2023-01-30T05:06:42.904Z,-2.09
2023-01-30T05:07:43.079Z,-2.09
2023-01-30T05:08:46.939Z,-2.09
2023-01-30T05:09:47.136Z,-2.09
2023-01-30T05:10:47.296Z,-2.09
2023-01-30T05:11:47.549Z,-2.09
2023-01-30T05:12:47.728Z,-2.09
2023-01-30T05:13:47.924Z,-2.09
2023-01-30T05:14:48.092Z,-2.09
2023-01-30T05:15:48.291Z,-2.09
2023-01-30T05:16:48.530Z,-2.09
2023-01-30T05:17:48.762Z,-2.09
2023-01-30T05:18:48.964Z,-2.09
2023-01-30T05:19:49.176Z,-2.09
2023-01-30T05:20:49.366Z,-2.09
2023-01-30T05:21:49.539Z,-2.09
2023-01-30T05:22:49.740Z,-2.09
2023-01-30T05:23:49.918Z,-2.09
2023-01-30T05:24:50.084Z,-2
2023-01-30T05:25:50.255Z,-2
2023-01-30T05:26:50.566Z,-2
2023-01-30T05:27:50.740Z,-2
2023-01-30T05:28:50.918Z,-2
2023-01-30T05:29:51.085Z,-2
2023-01-30T05:30:51.355Z,-2
2023-01-30T05:31:51.776Z,-2
2023-01-30T05:32:52.109Z,-2
2023-01-30T05:33:52.489Z,-2
2023-01-30T05:34:52.819Z,-2
2023-01-30T05:35:52.992Z,-2
2023-01-30T05:36:53.156Z,-2
2023-01-30T05:37:53.339Z,-2
2023-01-30T05:38:53.527Z,-2
2023-01-30T05:39:53.711Z,-2
2023-01-30T05:40:53.956Z,-2
2023-01-30T05:41:54.120Z,-2
2023-01-30T05:42:54.303Z,-2
2023-01-30T05:43:54.501Z,-2
2023-01-30T05:44:54.689Z,-2
2023-01-30T05:45:54.887Z,-2
2023-01-30T05:46:55.230Z,-2
2023-01-30T05:48:01.484Z,-2
2023-01-30T05:49:02.049Z,-2.09
2023-01-30T05:50:02.251Z,-2.09
2023-01-30T05:51:02.445Z,-2.09
2023-01-30T05:52:02.626Z,-2.09
2023-01-30T05:53:02.822Z,-2.09
2023-01-30T05:54:02.981Z,-2.09
2023-01-30T05:55:03.156Z,-2.09
2023-01-30T05:56:03.426Z,-2.09
2023-01-30T05:57:03.674Z,-2.09
2023-01-30T05:58:03.907Z,-2.09
2023-01-30T05:59:04.065Z,-2.09
2023-01-30T06:00:04.252Z,-2.09
2023-01-30T06:01:04.432Z,-2.09
2023-01-30T06:02:04.628Z,-2.09
2023-01-30T06:03:04.777Z,-2.09
2023-01-30T06:04:05.148Z,-2.09
2023-01-30T06:05:05.391Z,-2.09
2023-01-30T06:06:05.592Z,-2.09
2023-01-30T06:07:05.767Z,-2.09
2023-01-30T06:08:05.944Z,-2.09
2023-01-30T06:09:06.134Z,-2.09
2023-01-30T06:10:06.318Z,-2.09
2023-01-30T06:11:06.482Z,-2.09
2023-01-30T06:12:06.663Z,-2.09
2023-01-30T06:13:06.843Z,-2.09
2023-01-30T06:14:07.045Z,-2.2
2023-01-30T06:15:07.208Z,-2.2
2023-01-30T06:16:07.545Z,-2.2
2023-01-30T06:17:07.860Z,-2.2
2023-01-30T06:18:08.139Z,-2.2
2023-01-30T06:19:08.323Z,-2.2
2023-01-30T06:20:08.515Z,-2.2
2023-01-30T06:21:08.693Z,-2.2
2023-01-30T06:22:08.907Z,-2.2
2023-01-30T06:23:09.087Z,-2.2
2023-01-30T06:24:09.263Z,-2.2
2023-01-30T06:25:09.445Z,-2.2
2023-01-30T06:26:09.640Z,-2.2
2023-01-30T06:27:09.807Z,-2.2
2023-01-30T06:28:09.981Z,-2.2
2023-01-30T06:29:10.151Z,-2.2
2023-01-30T06:30:10.313Z,-2.2
2023-01-30T06:31:10.657Z,-2.2
2023-01-30T06:32:10.939Z,-2.2
2023-01-30T06:33:11.116Z,-2.2
2023-01-30T06:34:11.284Z,-2.2
2023-01-30T06:35:11.454Z,-2.2
2023-01-30T06:36:11.722Z,-2.2
2023-01-30T06:37:11.932Z,-2.2
2023-01-30T06:38:12.102Z,-2.2
2023-01-30T06:39:12.264Z,-2.2
2023-01-30T06:40:12.472Z,-2.2
2023-01-30T06:41:12.669Z,-2.2
2023-01-30T06:42:12.836Z,-2.2
2023-01-30T06:43:13.005Z,-2.2
2023-01-30T06:44:13.184Z,-2.09
2023-01-30T06:45:13.360Z,-2.09
2023-01-30T06:46:13.696Z,-2.09
2023-01-30T06:47:13.911Z,-2.09
2023-01-30T06:48:14.081Z,-2.09
2023-01-30T06:49:14.249Z,-2.09
2023-01-30T06:50:14.556Z,-2.09
2023-01-30T06:51:14.773Z,-2.09
2023-01-30T06:52:14.950Z,-2.09
2023-01-30T06:53:15.114Z,-2.09
2023-01-30T06:54:15.292Z,-2
2023-01-30T06:55:16.233Z,-2
2023-01-30T06:56:17.156Z,-2
2023-01-30T06:57:17.320Z,-2
2023-01-30T06:58:17.512Z,-2
2023-01-30T06:59:17.693Z,-2
2023-01-30T07:00:17.879Z,-2
2023-01-30T07:01:18.089Z,-2
2023-01-30T07:02:18.278Z,-2
2023-01-30T07:03:18.462Z,-2
2023-01-30T07:04:18.804Z,-2
2023-01-30T07:05:19.891Z,-2
2023-01-30T07:06:20.567Z,-2
2023-01-30T07:07:20.746Z,-2
2023-01-30T07:08:24.361Z,-2
2023-01-30T07:09:24.716Z,-2.09
2023-01-30T07:10:24.893Z,-2.09
2023-01-30T07:11:25.061Z,-2.09
2023-01-30T07:12:25.238Z,-2.09
2023-01-30T07:13:25.409Z,-2.09
2023-01-30T07:14:25.592Z,-2.09
2023-01-30T07:15:25.758Z,-2.09
2023-01-30T07:16:25.957Z,-2.09
2023-01-30T07:17:26.214Z,-2.09
2023-01-30T07:18:26.392Z,-2.09
2023-01-30T07:19:26.579Z,-2.09
2023-01-30T07:20:26.793Z,-2.09
2023-01-30T07:21:26.984Z,-2.09
2023-01-30T07:22:27.156Z,-2.09
2023-01-30T07:23:27.325Z,-2.09
2023-01-30T07:24:27.498Z,-2.2
2023-01-30T07:25:27.693Z,-2.2
2023-01-30T07:26:27.964Z,-2.2
2023-01-30T07:27:28.188Z,-2.2
2023-01-30T07:28:28.612Z,-2.2
2023-01-30T07:29:29.061Z,-2.2
2023-01-30T07:30:29.682Z,-2.2
2023-01-30T07:31:30.184Z,-2.2
2023-01-30T07:32:30.450Z,-2.2
2023-01-30T07:33:30.695Z,-2.2
2023-01-30T07:34:30.874Z,-2.3
2023-01-30T07:35:31.071Z,-2.3
2023-01-30T07:36:31.260Z,-2.3
2023-01-30T07:37:31.424Z,-2.3
2023-01-30T07:38:31.598Z,-2.3
2023-01-30T07:39:31.781Z,-2.3
2023-01-30T07:40:31.951Z,-2.3
2023-01-30T07:41:32.169Z,-2.3
2023-01-30T07:42:32.381Z,-2.3
2023-01-30T07:43:32.558Z,-2.3
2023-01-30T07:44:32.732Z,-2.3
2023-01-30T07:45:32.898Z,-2.3
2023-01-30T07:46:33.122Z,-2.3
2023-01-30T07:47:33.362Z,-2.3
2023-01-30T07:48:33.685Z,-2.3
2023-01-30T07:49:33.896Z,-2.3
2023-01-30T07:50:34.070Z,-2.3
2023-01-30T07:51:34.248Z,-2.3
2023-01-30T07:52:34.441Z,-2.3
2023-01-30T07:53:34.606Z,-2.3
2023-01-30T07:54:34.974Z,-2.3
2023-01-30T07:55:35.209Z,-2.3
2023-01-30T07:56:35.388Z,-2.3
2023-01-30T07:57:35.580Z,-2.3
2023-01-30T07:58:35.771Z,-2.3
2023-01-30T07:59:35.980Z,-2.3
2023-01-30T08:00:36.160Z,-2.3
2023-01-30T08:01:36.346Z,-2.3
2023-01-30T08:02:36.545Z,-2.3
2023-01-30T08:03:36.715Z,-2.3
2023-01-30T08:04:36.977Z,-2.4
2023-01-30T08:05:37.188Z,-2.4
2023-01-30T08:06:37.379Z,-2.4
2023-01-30T08:07:37.559Z,-2.4
2023-01-30T08:08:37.750Z,-2.4
2023-01-30T08:09:37.933Z,-2.4
2023-01-30T08:10:38.130Z,-2.4
2023-01-30T08:11:38.314Z,-2.4
2023-01-30T08:12:38.481Z,-2.4
2023-01-30T08:13:38.659Z,-2.4
2023-01-30T08:14:38.819Z,-2.09
2023-01-30T08:15:38.997Z,-2.09
2023-01-30T08:16:39.271Z,-2.09
2023-01-30T08:17:39.534Z,-2.09
2023-01-30T08:18:39.703Z,-2.09
2023-01-30T08:19:39.874Z,-2.09
2023-01-30T08:20:40.073Z,-2.09
2023-01-30T08:21:40.251Z,-2.09
2023-01-30T08:22:40.479Z,-2.09
2023-01-30T08:23:40.647Z,-2.09
2023-01-30T08:24:40.825Z,-1.5
2023-01-30T08:25:41.011Z,-1.5
2023-01-30T08:26:41.318Z,-1.5
2023-01-30T08:27:41.607Z,-1.5
2023-01-30T08:28:41.791Z,-1.5
2023-01-30T08:29:41.986Z,-1.5
2023-01-30T08:30:42.272Z,-1.5
2023-01-30T08:31:42.605Z,-1.5
2023-01-30T08:32:42.819Z,-1.5
2023-01-30T08:33:43.069Z,-1.5
2023-01-30T08:34:43.275Z,-0.9
2023-01-30T08:35:43.444Z,-0.9
2023-01-30T08:36:43.691Z,-0.9
2023-01-30T08:37:43.875Z,-0.9
2023-01-30T08:38:44.048Z,-0.9
2023-01-30T08:39:44.247Z,-0.9
2023-01-30T08:40:44.431Z,-0.9
2023-01-30T08:41:44.605Z,-0.9
2023-01-30T08:42:44.792Z,-0.9
2023-01-30T08:43:45.009Z,-0.9
2023-01-30T08:44:45.190Z,0
2023-01-30T08:45:45.351Z,0
2023-01-30T08:46:45.631Z,0
2023-01-30T08:47:45.885Z,0
2023-01-30T08:48:50.488Z,0
2023-01-30T08:49:50.709Z,0.3
2023-01-30T08:50:50.883Z,0.3
2023-01-30T08:51:51.075Z,0.3
2023-01-30T08:52:51.252Z,0.3
2023-01-30T08:53:51.415Z,0.3
2023-01-30T08:54:51.591Z,0.6
2023-01-30T08:55:51.794Z,0.6
2023-01-30T08:56:51.986Z,0.6
2023-01-30T08:57:52.169Z,0.6
2023-01-30T08:58:52.359Z,0.6
2023-01-30T08:59:52.612Z,0.6
2023-01-30T09:00:53.158Z,0.6
2023-01-30T09:01:53.437Z,0.6
2023-01-30T09:02:53.627Z,0.6
2023-01-30T09:03:53.834Z,0.6
2023-01-30T09:04:54.004Z,0.3
2023-01-30T09:05:54.184Z,0.3
2023-01-30T09:06:54.366Z,0.3
2023-01-30T09:07:54.546Z,0.3
2023-01-30T09:08:54.725Z,0.3
2023-01-30T09:09:54.902Z,0.3
2023-01-30T09:10:55.067Z,0.3
2023-01-30T09:11:55.249Z,0.3
2023-01-30T09:12:55.436Z,0.3
2023-01-30T09:13:55.612Z,0.3
2023-01-30T09:14:55.838Z,0.2
2023-01-30T09:15:56.018Z,0.2
2023-01-30T09:16:56.417Z,0.2
2023-01-30T09:17:56.820Z,0.2
2023-01-30T09:18:56.989Z,0.2
2023-01-30T09:19:57.156Z,0.2
2023-01-30T09:20:57.567Z,0.2
2023-01-30T09:21:57.751Z,0.2
2023-01-30T09:22:57.929Z,0.2
2023-01-30T09:23:58.101Z,1
2023-01-30T09:24:58.282Z,1
2023-01-30T09:25:58.696Z,1
2023-01-30T09:26:59.172Z,1
2023-01-30T09:27:59.362Z,1
2023-01-30T09:28:59.535Z,1
2023-01-30T09:29:59.743Z,1
2023-01-30T09:31:00.098Z,1
2023-01-30T09:32:00.572Z,1
2023-01-30T09:33:00.746Z,1
2023-01-30T09:34:00.952Z,1.9
2023-01-30T09:35:01.124Z,1.9
2023-01-30T09:36:01.301Z,1.9
2023-01-30T09:37:05.059Z,1.9
2023-01-30T09:38:05.469Z,1.9
2023-01-30T09:39:05.646Z,1.9
2023-01-30T09:40:05.836Z,1.9
2023-01-30T09:41:06.017Z,1.9
2023-01-30T09:42:06.281Z,1.9
2023-01-30T09:43:06.460Z,1.9
2023-01-30T09:44:06.647Z,2.2
2023-01-30T09:45:07.094Z,2.2
2023-01-30T09:46:07.351Z,2.2
2023-01-30T09:47:07.566Z,2.2
2023-01-30T09:48:08.480Z,2.2
2023-01-30T09:49:10.171Z,2.2
2023-01-30T09:50:10.718Z,2.2
2023-01-30T09:51:11.192Z,2.2
2023-01-30T09:52:12.025Z,2.2
2023-01-30T09:53:12.247Z,2.2
2023-01-30T09:54:12.433Z,1.8
2023-01-30T09:55:12.615Z,1.8
2023-01-30T09:56:12.831Z,1.8
2023-01-30T09:57:22.452Z,1.8
2023-01-30T09:58:22.806Z,1.6
2023-01-30T09:59:23.004Z,1.6
2023-01-30T10:00:23.293Z,1.6
2023-01-30T10:01:23.530Z,1.6
2023-01-30T10:02:23.906Z,1.6
2023-01-30T10:03:24.347Z,1.6
2023-01-30T10:04:24.768Z,1.4
2023-01-30T10:05:25.029Z,1.4
2023-01-30T10:06:25.199Z,1.4
2023-01-30T10:07:25.576Z,1.4
2023-01-30T10:08:25.964Z,1.4
2023-01-30T10:09:26.153Z,1.4
2023-01-30T10:10:26.336Z,1.4
2023-01-30T10:11:26.505Z,1.4
2023-01-30T10:12:26.676Z,1.4
2023-01-30T10:13:26.843Z,1.4
2023-01-30T10:14:27.034Z,1.1
2023-01-30T10:15:27.267Z,1.1
2023-01-30T10:16:27.538Z,1.1
2023-01-30T10:17:27.757Z,1.1
2023-01-30T10:18:27.955Z,1.1
2023-01-30T10:19:36.696Z,1.1
2023-01-30T10:20:37.044Z,1.3
2023-01-30T10:21:37.213Z,1.3
2023-01-30T10:22:37.417Z,1.3
2023-01-30T10:23:37.595Z,1.3
2023-01-30T10:24:37.815Z,1.7
2023-01-30T10:25:37.986Z,1.7
2023-01-30T10:26:38.159Z,1.7
2023-01-30T10:27:38.436Z,1.7
2023-01-30T10:28:38.644Z,1.7
2023-01-30T10:29:38.869Z,1.7
2023-01-30T10:30:39.162Z,1.7
2023-01-30T10:31:39.620Z,1.7
2023-01-30T10:32:39.919Z,1.7
2023-01-30T10:33:40.088Z,1.7
2023-01-30T10:34:40.256Z,1.8
2023-01-30T10:35:40.435Z,1.8
2023-01-30T10:36:40.621Z,1.8
2023-01-30T10:37:40.820Z,1.8
2023-01-30T10:38:41.039Z,1.8
2023-01-30T10:39:55.701Z,1.8
2023-01-30T10:40:56.122Z,1.6
2023-01-30T10:41:56.281Z,1.6
2023-01-30T10:42:56.479Z,1.6
2023-01-30T10:43:56.644Z,1.5
2023-01-30T10:44:56.854Z,1.5
2023-01-30T10:45:57.062Z,1.5
2023-01-30T10:46:57.783Z,1.5
2023-01-30T10:47:58.039Z,1.5
2023-01-30T10:48:58.390Z,1.5
2023-01-30T10:49:59.405Z,1.5
2023-01-30T10:50:59.660Z,1.5
2023-01-30T10:51:59.852Z,1.5
2023-01-30T10:53:00.047Z,1.5
2023-01-30T10:54:00.222Z,1.5
2023-01-30T10:55:00.430Z,1.5
2023-01-30T10:56:00.597Z,1.5
2023-01-30T10:57:00.767Z,1.5
2023-01-30T10:58:00.986Z,1.5
2023-01-30T10:59:01.155Z,1.5
2023-01-30T11:00:01.329Z,1.5
2023-01-30T11:01:01.579Z,1.5
2023-01-30T11:02:01.947Z,1.5
2023-01-30T11:03:02.267Z,1.5
2023-01-30T11:04:02.586Z,1.4
2023-01-30T11:05:02.792Z,1.4
2023-01-30T11:06:03.018Z,1.4
2023-01-30T11:07:03.201Z,1.4
2023-01-30T11:08:03.396Z,1.4
2023-01-30T11:09:03.569Z,1.4
2023-01-30T11:10:03.768Z,1.4
2023-01-30T11:11:03.942Z,1.4
2023-01-30T11:12:04.115Z,1.4
2023-01-30T11:13:04.322Z,1.4
2023-01-30T11:14:04.496Z,2.2
2023-01-30T11:15:04.760Z,2.2
2023-01-30T11:16:05.056Z,2.2
2023-01-30T11:17:05.382Z,2.2
2023-01-30T11:19:18.033Z,2.2
2023-01-30T11:20:22.358Z,2.8
2023-01-30T11:21:31.985Z,2.8
2023-01-30T11:22:44.333Z,3.2
2023-01-30T11:23:44.509Z,3.2
2023-01-30T11:24:44.707Z,3.2
2023-01-30T11:25:44.876Z,3.2
2023-01-30T11:26:48.708Z,3.2
2023-01-30T11:27:49.169Z,3.9
2023-01-30T11:28:49.339Z,4.19
2023-01-30T11:29:49.527Z,4.19
2023-01-30T11:30:49.729Z,4.19
2023-01-30T11:31:50.244Z,4.19
2023-01-30T11:32:50.707Z,4.19
2023-01-30T11:33:50.907Z,4.19
2023-01-30T11:34:51.069Z,5.2
2023-01-30T11:35:51.240Z,5.2
2023-01-30T11:36:51.503Z,5.2
2023-01-30T11:37:51.662Z,5.2
2023-01-30T11:38:51.825Z,5.2
2023-01-30T11:39:51.993Z,6.2
2023-01-30T11:40:52.160Z,6.2
2023-01-30T11:41:52.317Z,6.2
2023-01-30T11:42:52.493Z,6.2
2023-01-30T11:43:52.794Z,6.2
2023-01-30T11:44:55.446Z,7.2
2023-01-30T11:46:14.748Z,7.3
2023-01-30T11:47:14.990Z,7.3
2023-01-30T11:49:01.166Z,7.3
2023-01-30T11:50:50.143Z,8
2023-01-30T11:51:50.663Z,8.2
2023-01-30T11:52:50.955Z,8.2
2023-01-30T11:53:51.219Z,8.2
2023-01-30T11:54:51.413Z,8.2
2023-01-30T11:56:07.260Z,8.2
2023-01-30T11:57:10.201Z,8.89
2023-01-30T11:58:10.374Z,8.89
2023-01-30T11:59:10.544Z,8.89
2023-01-30T12:00:10.737Z,9.2
2023-01-30T12:01:10.914Z,9.2
2023-01-30T12:02:11.223Z,9.2
2023-01-30T12:03:11.555Z,9.2
2023-01-30T12:04:11.837Z,9.2
2023-01-30T12:05:12.011Z,9.2
2023-01-30T12:06:12.186Z,9.2
2023-01-30T12:07:12.363Z,9.2
2023-01-30T12:08:12.558Z,9.2
2023-01-30T12:09:12.718Z,9.2
2023-01-30T12:10:12.880Z,9.89
2023-01-30T12:11:13.051Z,9.89
2023-01-30T12:12:13.221Z,9.89
2023-01-30T12:13:13.600Z,9.89
2023-01-30T12:14:14.019Z,9.89
2023-01-30T12:15:14.235Z,9.89
2023-01-30T12:16:14.458Z,9.89
2023-01-30T12:17:14.660Z,9.89
2023-01-30T12:18:14.829Z,9.89
2023-01-30T12:19:14.997Z,9.89
2023-01-30T12:20:15.389Z,10.9
2023-01-30T12:21:15.788Z,10.9
2023-01-30T12:22:15.957Z,10.9
2023-01-30T12:23:16.127Z,10.9
2023-01-30T12:24:18.889Z,10.9
2023-01-30T12:25:19.116Z,10.9
2023-01-30T12:26:19.335Z,10.9
2023-01-30T12:27:19.578Z,10.9
2023-01-30T12:28:19.924Z,10.9
2023-01-30T12:29:20.119Z,11.7
2023-01-30T12:30:21.065Z,11.7
2023-01-30T12:31:21.746Z,11.7
2023-01-30T12:32:22.128Z,11.7
2023-01-30T12:33:22.498Z,11.7
2023-01-30T12:34:27.539Z,11.7
2023-01-30T12:35:28.043Z,11.8
2023-01-30T12:36:28.206Z,11.8
2023-01-30T12:37:28.381Z,11.8
2023-01-30T12:38:28.564Z,11.8
2023-01-30T12:39:28.744Z,11.9
2023-01-30T12:40:28.899Z,11.9
2023-01-30T12:41:29.058Z,11.9
2023-01-30T12:42:29.211Z,11.9
2023-01-30T12:43:29.388Z,11.9
2023-01-30T12:44:29.612Z,11.9
2023-01-30T12:45:29.778Z,11.9
2023-01-30T12:46:30.041Z,11.9
2023-01-30T12:47:30.216Z,11.9
2023-01-30T12:48:30.369Z,11.9
2023-01-30T12:49:30.525Z,11.9
2023-01-30T12:50:30.711Z,11.9
2023-01-30T12:51:30.857Z,11.9
2023-01-30T12:52:31.004Z,11.9
2023-01-30T12:53:31.159Z,11.9
2023-01-30T12:54:31.304Z,11.9
2023-01-30T12:55:31.469Z,11.9
2023-01-30T12:56:31.637Z,11.9
2023-01-30T12:57:31.801Z,11.9
2023-01-30T12:58:31.964Z,11.9
2023-01-30T12:59:32.118Z,11.8
2023-01-30T13:00:32.298Z,11.8
2023-01-30T13:01:32.538Z,11.8
2023-01-30T13:02:33.033Z,11.8
2023-01-30T13:03:33.285Z,11.8
2023-01-30T13:04:34.536Z,11.8
2023-01-30T13:05:37.655Z,11.7
2023-01-30T13:06:37.875Z,11.7
2023-01-30T13:07:38.074Z,11.7
2023-01-30T13:08:38.242Z,11.7
2023-01-30T13:09:38.408Z,11.7
2023-01-30T13:10:38.559Z,11.7
2023-01-30T13:11:38.716Z,11.7
2023-01-30T13:12:38.880Z,11.7
2023-01-30T13:13:39.035Z,11.7
2023-01-30T13:14:39.183Z,11.7
2023-01-30T13:15:39.376Z,11.7
2023-01-30T13:16:39.613Z,11.7
2023-01-30T13:17:39.771Z,11.7
2023-01-30T13:18:39.920Z,11.7
2023-01-30T13:19:41.826Z,11.6
2023-01-30T13:20:42.018Z,11.6
2023-01-30T13:21:42.165Z,11.6
2023-01-30T13:22:42.343Z,11.6
2023-01-30T13:23:42.523Z,11.6
2023-01-30T13:24:42.711Z,11.6
2023-01-30T13:25:42.883Z,11.6
2023-01-30T13:26:43.250Z,11.6
2023-01-30T13:27:43.538Z,11.6
2023-01-30T13:28:43.690Z,11.6
2023-01-30T13:29:43.850Z,10.7
2023-01-30T13:30:43.996Z,10.7
2023-01-30T13:31:44.409Z,10.7